createdAt,value
2023-03-17T09:26:35.372Z,21.10
2023-03-17T09:29:04.660Z,22.00
2023-03-17T09:31:33.029Z,20.60
2023-03-17T09:34:01.341Z,20.50
2023-03-17T09:36:29.453Z,20.40
2023-03-17T09:38:57.561Z,21.20
2023-03-17T09:41:50.042Z,21.40
2023-03-17T09:44:31.258Z,21.50
2023-03-17T09:47:09.561Z,21.60
2023-03-17T09:49:42.320Z,20.80
2023-03-17T09:52:15.177Z,20.20
2023-03-17T09:54:45.747Z,19.80
2023-03-17T09:57:19.338Z,19.80
2023-03-17T09:59:52.154Z,20.40
2023-03-17T10:02:24.767Z,20.80
2023-03-17T10:04:53.205Z,20.80
2023-03-17T10:07:27.010Z,20.60
2023-03-17T10:10:03.061Z,19.80
2023-03-17T10:12:43.705Z,20.00
2023-03-17T10:15:19.297Z,19.80
2023-03-17T10:17:48.032Z,20.20
2023-03-17T10:20:18.426Z,20.70
2023-03-17T10:22:49.114Z,21.20
2023-03-17T10:25:19.142Z,21.00
2023-03-17T10:27:56.121Z,21.80
2023-03-17T10:30:25.887Z,22.00
2023-03-17T10:32:57.415Z,22.20
2023-03-17T10:35:26.115Z,22.00
2023-03-17T10:38:07.993Z,22.20
2023-03-17T10:40:41.807Z,22.60
2023-03-17T10:43:20.798Z,23.10
2023-03-17T10:45:58.840Z,23.90
2023-03-17T10:48:27.468Z,24.90
2023-03-17T10:50:59.579Z,25.60
2023-03-17T10:53:32.024Z,26.30
2023-03-17T10:56:02.553Z,26.40
2023-03-17T10:58:45.802Z,26.70
2023-03-17T11:01:21.659Z,26.80
2023-03-17T11:03:50.809Z,27.30
2023-03-17T11:06:21.420Z,27.00
2023-03-17T11:08:51.065Z,27.70
2023-03-17T11:11:28.065Z,27.70
2023-03-17T11:14:04.907Z,28.50
2023-03-17T11:16:35.158Z,28.70
2023-03-17T11:19:04.514Z,28.60
2023-03-17T11:21:35.591Z,28.70
2023-03-17T11:24:09.677Z,28.00
2023-03-17T11:26:55.669Z,27.00
2023-03-17T11:29:40.032Z,25.40
2023-03-17T11:32:28.960Z,24.50
2023-03-17T11:35:09.896Z,23.90
2023-03-17T11:38:04.621Z,22.70
2023-03-17T11:40:37.623Z,22.00
2023-03-17T11:43:20.105Z,21.30
2023-03-17T11:45:53.889Z,20.90
2023-03-17T11:48:34.175Z,20.70
2023-03-17T11:51:09.914Z,20.10
2023-03-17T11:53:57.157Z,20.00
2023-03-17T11:56:33.271Z,19.80
2023-03-17T11:59:05.097Z,19.30
2023-03-17T12:01:46.876Z,19.30
2023-03-17T12:04:23.412Z,19.10
2023-03-17T12:06:57.661Z,19.10
2023-03-17T12:09:32.076Z,18.70
2023-03-17T12:12:03.598Z,18.60
2023-03-17T12:14:36.821Z,18.70
2023-03-17T12:17:12.805Z,18.60
2023-03-17T12:19:47.380Z,18.50
2023-03-17T12:22:23.243Z,18.30
2023-03-17T12:25:02.968Z,18.10
2023-03-17T12:27:34.935Z,18.00
2023-03-17T12:30:08.661Z,17.90
2023-03-17T12:32:42.847Z,18.00
2023-03-17T12:35:26.349Z,17.80
2023-03-17T12:37:55.171Z,18.00
2023-03-17T12:40:28.804Z,18.00
2023-03-17T12:43:13.850Z,17.80
2023-03-17T12:46:03.790Z,17.70
2023-03-17T12:48:51.062Z,17.70
2023-03-17T12:51:50.168Z,17.90
2023-03-17T12:54:22.544Z,18.20
2023-03-17T12:56:51.360Z,18.10
2023-03-17T12:59:24.190Z,18.20
2023-03-17T13:01:58.539Z,18.20
2023-03-17T13:04:32.515Z,18.30
2023-03-17T13:07:07.348Z,18.20
2023-03-17T13:09:45.629Z,18.30
2023-03-17T13:12:59.258Z,18.40
2023-03-17T13:15:57.111Z,18.40
2023-03-17T13:18:45.804Z,18.40
2023-03-17T13:21:18.916Z,18.60
2023-03-17T13:23:49.081Z,18.60
2023-03-17T13:26:21.498Z,18.30
2023-03-17T13:28:51.222Z,18.20
2023-03-17T13:31:38.388Z,18.10
2023-03-17T13:34:15.287Z,18.30
2023-03-17T13:36:56.034Z,18.30
2023-03-17T13:39:52.705Z,18.30
2023-03-17T13:42:36.583Z,18.00
2023-03-17T13:45:17.527Z,18.10
2023-03-17T13:47:47.451Z,18.00
2023-03-17T13:50:17.788Z,18.30
2023-03-17T13:52:51.444Z,18.40
2023-03-17T13:55:39.904Z,18.50
2023-03-17T13:58:34.364Z,18.40
2023-03-17T14:01:07.460Z,18.40
2023-03-17T14:03:41.645Z,18.40
2023-03-17T14:06:13.007Z,18.50
2023-03-17T14:08:46.803Z,18.50
2023-03-17T14:11:23.990Z,18.70
2023-03-17T14:14:04.239Z,18.70
2023-03-17T14:16:35.015Z,18.80
2023-03-17T14:19:13.776Z,18.80
2023-03-17T14:21:41.889Z,18.70
2023-03-17T14:24:21.263Z,18.60
2023-03-17T14:26:50.384Z,18.60
2023-03-17T14:29:20.599Z,18.30
2023-03-17T14:31:49.935Z,18.40
2023-03-17T14:34:21.847Z,18.40
2023-03-17T14:36:52.119Z,18.40
2023-03-17T14:39:27.018Z,18.40
2023-03-17T14:42:03.250Z,18.30
2023-03-17T14:44:38.852Z,18.20
2023-03-17T14:47:14.235Z,18.10
2023-03-17T14:49:42.443Z,18.00
2023-03-17T14:52:20.241Z,17.70
2023-03-17T14:54:54.015Z,17.50
2023-03-17T14:57:24.913Z,17.70
2023-03-17T15:00:00.956Z,17.60
2023-03-17T15:02:33.216Z,17.60
2023-03-17T15:05:06.807Z,17.60
2023-03-17T15:07:39.625Z,17.50
2023-03-17T15:10:16.590Z,17.50
2023-03-17T15:12:46.331Z,17.30
2023-03-17T15:15:23.565Z,17.30
2023-03-17T15:17:57.870Z,17.10
2023-03-17T15:20:26.054Z,17.10
2023-03-17T15:22:59.897Z,17.10
2023-03-17T15:25:35.650Z,17.10
2023-03-17T15:28:03.618Z,16.90
2023-03-17T15:30:44.269Z,16.80
2023-03-17T15:33:21.224Z,16.80
2023-03-17T15:35:49.557Z,16.80
2023-03-17T15:38:17.512Z,16.70
2023-03-17T15:40:47.001Z,16.70
2023-03-17T15:43:16.032Z,16.80
2023-03-17T15:45:45.184Z,16.90
2023-03-17T15:48:21.428Z,17.00
2023-03-17T15:50:50.944Z,17.00
2023-03-17T15:53:18.995Z,16.90
2023-03-17T15:55:49.066Z,17.00
2023-03-17T15:58:17.184Z,17.00
2023-03-17T16:00:48.572Z,16.90
2023-03-17T16:03:19.710Z,16.80
2023-03-17T16:05:47.665Z,16.70
2023-03-17T16:08:17.954Z,16.70
2023-03-17T16:10:46.775Z,16.60
2023-03-17T16:13:18.091Z,16.60
2023-03-17T16:15:53.056Z,16.50
2023-03-17T16:18:32.487Z,16.40
2023-03-17T16:21:01.071Z,16.30
2023-03-17T16:23:32.038Z,16.40
2023-03-17T16:26:13.871Z,16.30
2023-03-17T16:28:44.644Z,16.20
2023-03-17T16:31:20.168Z,16.10
2023-03-17T16:33:48.288Z,15.90
2023-03-17T16:36:18.639Z,15.90
2023-03-17T16:38:47.384Z,15.70
2023-03-17T16:41:19.155Z,15.70
2023-03-17T16:43:52.161Z,15.60
2023-03-17T16:46:22.099Z,15.50
2023-03-17T16:48:51.195Z,15.50
2023-03-17T16:51:19.329Z,15.30
2023-03-17T16:53:48.135Z,15.20
2023-03-17T16:56:19.310Z,15.10
2023-03-17T16:58:49.568Z,15.10
2023-03-17T17:01:21.162Z,15.00
2023-03-17T17:03:49.898Z,15.00
2023-03-17T17:06:19.620Z,14.90
2023-03-17T17:08:49.035Z,14.80
2023-03-17T17:11:18.604Z,14.80
2023-03-17T17:13:49.162Z,14.70
2023-03-17T17:16:23.459Z,14.70
2023-03-17T17:18:51.423Z,14.60
2023-03-17T17:21:19.360Z,14.50
2023-03-17T17:23:47.505Z,14.50
2023-03-17T17:26:15.689Z,14.40
2023-03-17T17:28:43.665Z,14.30
2023-03-17T17:31:13.105Z,14.20
2023-03-17T17:33:41.292Z,14.30
2023-03-17T17:36:14.427Z,14.20
2023-03-17T17:38:43.019Z,14.20
2023-03-17T17:41:12.466Z,14.20
2023-03-17T17:43:41.440Z,14.10
2023-03-17T17:46:14.180Z,14.00
2023-03-17T17:48:42.468Z,14.00
2023-03-17T17:51:10.510Z,14.00
2023-03-17T17:53:38.652Z,13.90
2023-03-17T17:56:07.373Z,14.00
2023-03-17T17:58:35.861Z,13.90
2023-03-17T18:01:05.591Z,13.80
2023-03-17T18:03:35.080Z,13.90
2023-03-17T18:06:03.847Z,13.90
2023-03-17T18:08:31.853Z,13.80
2023-03-17T18:10:59.955Z,13.80
2023-03-17T18:13:27.894Z,13.80
2023-03-17T18:15:56.437Z,13.80
2023-03-17T18:18:24.356Z,13.80
2023-03-17T18:20:54.490Z,13.70
2023-03-17T18:23:23.177Z,13.70
2023-03-17T18:25:51.989Z,13.80
2023-03-17T18:28:20.349Z,13.70
2023-03-17T18:30:48.303Z,13.70
2023-03-17T18:33:19.818Z,13.60
2023-03-17T18:35:49.830Z,13.60
2023-03-17T18:38:19.562Z,13.50
2023-03-17T18:40:47.734Z,13.50
2023-03-17T18:43:15.637Z,13.40
2023-03-17T18:45:43.718Z,13.20
2023-03-17T18:48:11.809Z,13.30
2023-03-17T18:50:39.713Z,13.30
2023-03-17T18:53:07.587Z,13.20
2023-03-17T18:55:37.846Z,13.20
2023-03-17T18:58:06.311Z,13.10
2023-03-17T19:00:34.708Z,13.10
2023-03-17T19:03:02.934Z,13.00
2023-03-17T19:05:31.222Z,13.00
2023-03-17T19:07:59.150Z,12.90
2023-03-17T19:10:27.206Z,12.90
2023-03-17T19:12:58.697Z,12.90
2023-03-17T19:15:27.149Z,12.80
2023-03-17T19:17:55.228Z,12.70
2023-03-17T19:20:23.367Z,12.70
2023-03-17T19:22:53.617Z,12.70
2023-03-17T19:25:21.964Z,12.60
2023-03-17T19:27:50.401Z,12.60
2023-03-17T19:30:19.773Z,12.40
2023-03-17T19:32:47.738Z,12.50
2023-03-17T19:35:15.953Z,12.40
2023-03-17T19:37:44.105Z,12.40
2023-03-17T19:40:13.651Z,12.30
2023-03-17T19:42:41.627Z,12.40
2023-03-17T19:45:10.812Z,12.20
2023-03-17T19:47:40.813Z,12.30
2023-03-17T19:50:11.243Z,12.20
2023-03-17T19:52:39.355Z,12.10
2023-03-17T19:55:09.561Z,12.00
2023-03-17T19:57:37.533Z,11.90
2023-03-17T20:00:08.838Z,11.90
2023-03-17T20:02:37.097Z,11.80
2023-03-17T20:05:07.485Z,11.80
2023-03-17T20:07:36.057Z,11.70
2023-03-17T20:10:04.589Z,11.70
2023-03-17T20:12:33.116Z,11.60
2023-03-17T20:15:02.885Z,11.60
2023-03-17T20:17:31.436Z,11.50
2023-03-17T20:19:59.645Z,11.40
2023-03-17T20:22:28.992Z,11.40
2023-03-17T20:24:57.063Z,11.40
2023-03-17T20:27:25.354Z,11.30
2023-03-17T20:29:53.486Z,11.30
2023-03-17T20:32:21.752Z,11.40
2023-03-17T20:34:49.947Z,11.40
2023-03-17T20:37:17.881Z,11.30
2023-03-17T20:39:47.496Z,11.30
2023-03-17T20:42:15.479Z,11.20
2023-03-17T20:44:44.221Z,11.10
2023-03-17T20:47:14.249Z,11.00
2023-03-17T20:49:42.722Z,11.00
2023-03-17T20:52:14.298Z,11.00
2023-03-17T20:54:42.731Z,11.10
2023-03-17T20:57:14.111Z,10.90
2023-03-17T20:59:43.925Z,10.80
2023-03-17T21:02:17.066Z,10.80
2023-03-17T21:04:47.593Z,10.70
2023-03-17T21:07:17.044Z,10.70
2023-03-17T21:09:45.299Z,10.60
2023-03-17T21:12:16.544Z,10.70
2023-03-17T21:14:45.013Z,10.60
2023-03-17T21:17:13.101Z,10.60
2023-03-17T21:19:41.814Z,10.50
2023-03-17T21:22:09.966Z,10.60
2023-03-17T21:24:39.745Z,10.50
2023-03-17T21:27:11.397Z,10.40
2023-03-17T21:29:41.035Z,10.40
2023-03-17T21:32:09.442Z,10.40
2023-03-17T21:34:38.009Z,10.40
2023-03-17T21:37:06.571Z,10.30
2023-03-17T21:39:36.349Z,10.30
2023-03-17T21:42:05.195Z,10.20
2023-03-17T21:44:33.776Z,10.10
2023-03-17T21:47:03.573Z,10.10
2023-03-17T21:49:31.620Z,10.00
2023-03-17T21:51:59.776Z,10.00
2023-03-17T21:54:28.412Z,9.90
2023-03-17T21:56:56.368Z,9.90
2023-03-17T21:59:24.999Z,9.90
2023-03-17T22:01:53.726Z,9.80
2023-03-17T22:04:23.271Z,9.80
2023-03-17T22:06:53.954Z,9.70
2023-03-17T22:09:22.122Z,9.70
2023-03-17T22:11:50.842Z,9.50
2023-03-17T22:14:20.529Z,9.50
2023-03-17T22:16:48.845Z,9.50
2023-03-17T22:19:20.662Z,9.50
2023-03-17T22:21:50.642Z,9.40
2023-03-17T22:24:18.876Z,9.40
2023-03-17T22:26:47.068Z,9.30
2023-03-17T22:29:15.233Z,9.30
2023-03-17T22:31:43.244Z,9.30
2023-03-17T22:34:11.399Z,9.30
2023-03-17T22:36:39.314Z,9.30
2023-03-17T22:39:10.618Z,9.30
2023-03-17T22:41:39.656Z,9.30
2023-03-17T22:44:09.226Z,9.20
2023-03-17T22:46:37.849Z,9.10
2023-03-17T22:49:06.975Z,9.10
2023-03-17T22:51:36.001Z,9.20
2023-03-17T22:54:04.091Z,9.20
2023-03-17T22:56:33.729Z,9.30
2023-03-17T22:59:02.128Z,9.20
2023-03-17T23:01:30.120Z,9.10
2023-03-17T23:03:58.290Z,9.10
2023-03-17T23:06:26.585Z,9.10
2023-03-17T23:08:56.499Z,9.00
2023-03-17T23:11:26.487Z,9.00
2023-03-17T23:13:55.998Z,9.00
2023-03-17T23:16:24.079Z,9.00
2023-03-17T23:18:52.753Z,8.90
2023-03-17T23:21:23.793Z,8.90
2023-03-17T23:23:51.864Z,8.90
2023-03-17T23:26:19.985Z,8.90
2023-03-17T23:28:47.890Z,9.00
2023-03-17T23:31:19.512Z,8.90
2023-03-17T23:33:47.738Z,9.00
2023-03-17T23:36:17.090Z,8.90
2023-03-17T23:38:45.503Z,8.90
2023-03-17T23:41:14.757Z,8.90
2023-03-17T23:43:43.953Z,8.90
2023-03-17T23:46:13.108Z,8.90
2023-03-17T23:48:42.967Z,8.80
2023-03-17T23:51:12.323Z,8.70
2023-03-17T23:53:40.836Z,8.70
2023-03-17T23:56:09.978Z,8.70
2023-03-17T23:58:38.101Z,8.80
